Time;durP1;ratioP1;P1;durP2;ratioP2;P2;SDS_P1;SDS_P2;PMS_P1;PMS_P2;Temp;Humidity;BMP_temperature;BMP_pressure;BME280_temperature;BME280_humidity;BME280_pressure;Samples;Min_cycle;Max_cycle;Signal;HPM_P1;HPM_P2
2024/03/15 00:02:22;;;;;;;11.20;10.90;;;20.20;66.60;;;;;;4975265;28;20595;-67
2024/03/15 00:04:49;;;;;;;11.20;10.80;;;20.20;65.90;;;;;;4974612;28;20440;-66
2024/03/15 00:07:16;;;;;;;10.40;10.10;;;20.20;66.00;;;;;;4969771;28;20433;-66
2024/03/15 00:09:43;;;;;;;11.73;11.33;;;20.20;66.00;;;;;;4971732;28;20444;-66
2024/03/15 00:12:09;;;;;;;11.40;11.10;;;20.20;66.00;;;;;;4971716;28;21026;-66
2024/03/15 00:14:37;;;;;;;10.67;10.10;;;20.20;66.10;;;;;;5016442;23;21021;-64
2024/03/15 00:17:04;;;;;;;10.10;9.80;;;20.20;66.00;;;;;;4993992;28;20446;-64
2024/03/15 00:19:31;;;;;;;10.17;9.87;;;20.20;66.00;;;;;;4994441;28;20446;-64
2024/03/15 00:21:58;;;;;;;11.07;10.77;;;20.20;66.00;;;;;;4994251;28;20435;-63
2024/03/15 00:24:26;;;;;;;10.60;10.30;;;20.20;66.10;;;;;;4993729;28;20462;-64
2024/03/15 00:26:52;;;;;;;10.47;10.07;;;20.20;66.00;;;;;;4963068;28;20436;-64
2024/03/15 00:29:19;;;;;;;10.40;9.90;;;20.20;66.00;;;;;;4974769;28;20467;-64
2024/03/15 00:31:46;;;;;;;9.73;9.53;;;20.20;66.00;;;;;;4974557;28;20499;-63
2024/03/15 00:34:13;;;;;;;10.10;9.80;;;20.20;66.00;;;;;;4974139;28;20463;-64
2024/03/15 00:36:41;;;;;;;9.90;9.60;;;20.20;66.10;;;;;;4987547;28;20450;-64
2024/03/15 00:39:08;;;;;;;11.63;11.33;;;20.20;66.10;;;;;;4978088;28;20662;-64
2024/03/15 00:41:35;;;;;;;11.40;11.10;;;20.20;66.10;;;;;;4977693;28;20449;-64
2024/03/15 00:44:02;;;;;;;10.17;9.87;;;20.20;66.10;;;;;;4972034;28;20993;-64
2024/03/15 00:46:29;;;;;;;10.00;9.70;;;20.10;66.10;;;;;;4974173;28;20448;-63
2024/03/15 00:48:56;;;;;;;10.17;9.87;;;20.10;66.10;;;;;;4974243;28;20933;-64
2024/03/15 00:51:22;;;;;;;10.10;9.80;;;20.10;66.10;;;;;;4974205;28;20456;-64
2024/03/15 00:53:50;;;;;;;9.80;9.60;;;20.20;66.30;;;;;;4976844;28;20458;-63
2024/03/15 00:56:17;;;;;;;9.93;9.63;;;20.20;66.20;;;;;;4977349;28;20450;-64
2024/03/15 00:58:44;;;;;;;10.23;9.93;;;20.20;66.20;;;;;;4977799;28;20439;-64
2024/03/15 01:01:12;;;;;;;9.80;9.47;;;20.20;66.20;;;;;;4977399;28;20823;-64
2024/03/15 01:03:38;;;;;;;10.10;9.80;;;20.10;66.20;;;;;;4975690;28;20523;-64
2024/03/15 01:06:06;;;;;;;10.77;10.47;;;20.10;66.30;;;;;;4973795;28;20455;-64
2024/03/15 01:08:32;;;;;;;9.40;9.13;;;20.10;66.30;;;;;;4990222;28;20443;-64
2024/03/15 01:10:59;;;;;;;9.90;9.60;;;20.10;66.30;;;;;;4977190;28;20857;-64
2024/03/15 01:13:26;;;;;;;9.43;9.23;;;20.10;66.30;;;;;;4977115;28;20495;-64
2024/03/15 01:15:53;;;;;;;9.97;9.67;;;20.10;66.40;;;;;;4958006;28;20447;-64
2024/03/15 01:18:20;;;;;;;9.63;9.43;;;20.10;66.30;;;;;;4973693;28;20968;-64
2024/03/15 01:20:46;;;;;;;9.80;9.50;;;20.10;66.40;;;;;;4973695;28;20439;-63
2024/03/15 01:23:13;;;;;;;9.80;9.50;;;20.10;66.50;;;;;;4973690;28;20486;-64
2024/03/15 01:25:40;;;;;;;9.50;9.20;;;20.10;66.50;;;;;;4990374;28;20431;-63
2024/03/15 01:28:08;;;;;;;10.10;9.80;;;20.10;66.40;;;;;;4976917;28;20450;-64
2024/03/15 01:30:35;;;;;;;10.00;9.70;;;20.10;66.30;;;;;;4976912;28;20442;-63
2024/03/15 01:33:01;;;;;;;10.50;10.20;;;20.10;66.40;;;;;;4976799;28;21015;-63
2024/03/15 01:35:32;;;;;;;10.50;10.20;;;20.10;66.30;;;;;;4961031;28;20446;-63
2024/03/15 01:38:00;;;;;;;10.40;9.70;;;20.10;66.30;;;;;;4973406;28;20539;-64
2024/03/15 01:40:27;;;;;;;9.73;9.43;;;20.10;66.40;;;;;;4973315;28;20448;-64
2024/03/15 01:42:53;;;;;;;9.60;9.37;;;20.10;66.40;;;;;;4973210;28;20463;-64
2024/03/15 01:45:20;;;;;;;10.20;9.80;;;20.10;66.50;;;;;;4986919;28;20450;-64
2024/03/15 01:47:47;;;;;;;9.60;9.40;;;20.10;66.40;;;;;;4976568;28;20446;-64
2024/03/15 01:50:14;;;;;;;9.77;9.47;;;20.10;66.50;;;;;;4976504;28;20798;-63
2024/03/15 01:52:41;;;;;;;9.50;9.30;;;20.10;66.50;;;;;;4970287;28;20486;-63
2024/03/15 01:55:08;;;;;;;10.00;9.70;;;20.10;66.60;;;;;;4972736;28;20446;-64
2024/03/15 01:57:35;;;;;;;10.00;9.70;;;20.10;66.50;;;;;;4972416;28;20451;-63
2024/03/15 02:00:04;;;;;;;10.53;10.23;;;20.10;66.50;;;;;;4973076;28;20440;-64
2024/03/15 02:02:32;;;;;;;10.07;9.87;;;20.10;66.50;;;;;;4976927;28;20439;-64
2024/03/15 02:04:59;;;;;;;10.90;10.50;;;20.00;66.40;;;;;;4958435;28;20444;-64
2024/03/15 02:07:28;;;;;;;10.73;10.33;;;20.00;66.40;;;;;;4972898;28;20451;-64
2024/03/15 02:09:55;;;;;;;10.40;10.10;;;20.00;66.40;;;;;;4972917;28;20439;-63
2024/03/15 02:12:21;;;;;;;10.77;10.47;;;20.00;66.50;;;;;;4973776;28;20860;-64
2024/03/15 02:14:49;;;;;;;10.40;9.90;;;20.00;66.50;;;;;;4972115;28;20843;-64
2024/03/15 02:17:16;;;;;;;10.27;9.97;;;20.00;66.60;;;;;;4972672;28;20951;-64
2024/03/15 02:19:44;;;;;;;10.90;10.50;;;20.10;66.60;;;;;;4972701;28;20444;-64
2024/03/15 02:22:11;;;;;;;9.93;9.63;;;20.10;66.50;;;;;;4972823;28;20494;-63
2024/03/15 02:24:38;;;;;;;10.40;10.00;;;20.00;66.40;;;;;;4972175;28;20460;-64
2024/03/15 02:27:06;;;;;;;10.27;9.97;;;20.00;66.40;;;;;;4972493;28;20448;-64
2024/03/15 02:29:33;;;;;;;9.73;9.43;;;20.00;66.40;;;;;;4972527;28;20451;-64
2024/03/15 02:32:00;;;;;;;9.40;9.20;;;20.00;66.40;;;;;;4972366;28;20440;-63
2024/03/15 02:34:27;;;;;;;10.10;9.80;;;20.00;66.40;;;;;;4972219;28;20464;-63
2024/03/15 02:36:56;;;;;;;9.77;9.47;;;20.00;67.20;;;;;;4972517;28;20443;-64
2024/03/15 02:39:24;;;;;;;10.20;9.87;;;20.00;66.40;;;;;;4972606;28;20456;-64
2024/03/15 02:41:51;;;;;;;10.20;9.90;;;20.00;66.50;;;;;;4972200;28;20941;-63
2024/03/15 02:44:18;;;;;;;9.33;9.13;;;20.00;66.50;;;;;;4989385;28;20865;-64
2024/03/15 02:46:45;;;;;;;9.20;9.00;;;20.00;66.50;;;;;;4975606;28;20509;-63
2024/03/15 02:49:12;;;;;;;10.20;9.90;;;20.00;66.50;;;;;;4975530;28;20442;-63
2024/03/15 02:51:39;;;;;;;10.10;9.83;;;20.00;66.50;;;;;;4975652;28;20455;-64
2024/03/15 02:54:08;;;;;;;10.17;9.90;;;20.00;66.60;;;;;;4958930;28;20845;-64
2024/03/15 02:56:34;;;;;;;9.60;9.40;;;20.00;66.60;;;;;;4972224;28;20479;-63
2024/03/15 02:59:01;;;;;;;10.30;10.00;;;20.00;66.60;;;;;;4971936;28;20485;-63
2024/03/15 03:01:28;;;;;;;9.90;9.60;;;20.00;66.60;;;;;;4980046;28;20439;-63
2024/03/15 03:03:56;;;;;;;9.90;9.70;;;20.00;66.70;;;;;;4975021;28;20996;-64
2024/03/15 03:06:23;;;;;;;10.80;10.40;;;20.00;66.70;;;;;;4975367;28;20497;-64
2024/03/15 03:08:50;;;;;;;10.83;10.53;;;20.00;66.70;;;;;;4974832;28;20450;-63
2024/03/15 03:11:18;;;;;;;9.77;9.50;;;20.00;66.80;;;;;;4968628;28;20436;-64
2024/03/15 03:13:45;;;;;;;9.73;9.53;;;20.00;66.80;;;;;;4971532;28;20562;-64
2024/03/15 03:16:11;;;;;;;10.53;10.23;;;20.00;66.90;;;;;;4971551;28;20451;-64
2024/03/15 03:18:38;;;;;;;10.20;9.90;;;20.00;66.80;;;;;;4971786;28;20454;-64
2024/03/15 03:21:05;;;;;;;9.80;9.50;;;20.00;66.70;;;;;;4975957;28;20948;-64
2024/03/15 03:23:33;;;;;;;10.13;9.83;;;20.00;66.70;;;;;;4975119;28;20463;-63
2024/03/15 03:26:01;;;;;;;9.90;9.60;;;20.00;66.70;;;;;;4975210;28;20450;-63
2024/03/15 03:28:27;;;;;;;10.17;9.80;;;20.00;66.80;;;;;;4974957;28;20450;-64
2024/03/15 03:30:54;;;;;;;9.70;9.50;;;20.00;66.80;;;;;;4972146;28;20437;-64
2024/03/15 03:33:21;;;;;;;10.53;10.23;;;20.00;66.80;;;;;;4971751;28;20491;-63
2024/03/15 03:35:48;;;;;;;10.27;9.97;;;20.00;66.80;;;;;;4971387;28;20448;-63
2024/03/15 03:38:15;;;;;;;10.63;10.33;;;20.00;66.80;;;;;;4971624;28;20810;-64
2024/03/15 03:40:41;;;;;;;10.60;10.30;;;20.00;66.80;;;;;;4971923;28;20435;-63
2024/03/15 03:43:09;;;;;;;12.20;11.90;;;20.00;66.80;;;;;;4970574;28;20463;-64
2024/03/15 03:45:38;;;;;;;11.53;11.20;;;20.00;66.70;;;;;;4971227;28;20958;-63
2024/03/15 03:48:05;;;;;;;10.40;10.10;;;20.00;66.80;;;;;;4971656;28;20914;-64
2024/03/15 03:50:33;;;;;;;10.73;10.43;;;20.00;66.80;;;;;;4971524;28;20440;-63
2024/03/15 03:52:59;;;;;;;10.67;10.37;;;20.00;66.70;;;;;;4990127;28;21077;-63
2024/03/15 03:55:26;;;;;;;10.63;10.33;;;20.00;66.80;;;;;;4974552;28;20443;-63
2024/03/15 03:57:55;;;;;;;10.63;10.33;;;20.00;66.70;;;;;;4974857;28;20860;-63
2024/03/15 04:00:23;;;;;;;10.47;10.13;;;20.00;66.80;;;;;;4975002;28;20861;-63
2024/03/15 04:02:52;;;;;;;10.00;9.70;;;20.00;66.70;;;;;;4958938;28;20972;-63
2024/03/15 04:05:19;;;;;;;11.80;11.00;;;20.00;66.80;;;;;;4974707;28;20474;-64
2024/03/15 04:07:46;;;;;;;11.13;10.83;;;20.00;66.80;;;;;;4974759;28;20439;-64
2024/03/15 04:10:13;;;;;;;10.10;9.83;;;20.00;66.70;;;;;;4974784;28;20439;-64
2024/03/15 04:12:40;;;;;;;11.13;10.73;;;20.00;66.70;;;;;;4973813;28;20475;-64
2024/03/15 04:15:07;;;;;;;11.20;10.90;;;20.00;66.70;;;;;;4974396;28;20519;-63
2024/03/15 04:17:35;;;;;;;10.83;10.53;;;19.90;66.70;;;;;;4974859;28;20941;-63
2024/03/15 04:20:01;;;;;;;11.50;11.10;;;19.90;66.70;;;;;;4974955;28;20447;-64
2024/03/15 04:22:28;;;;;;;10.80;10.50;;;19.90;66.70;;;;;;4963749;28;20440;-63
2024/03/15 04:24:55;;;;;;;11.07;10.67;;;19.90;66.80;;;;;;4974450;28;20479;-64
2024/03/15 04:27:22;;;;;;;11.30;11.00;;;19.90;66.80;;;;;;4974705;28;20455;-64
2024/03/15 04:29:49;;;;;;;11.47;11.17;;;19.90;66.80;;;;;;4980536;28;20912;-64
2024/03/15 04:32:19;;;;;;;10.70;10.50;;;19.90;66.90;;;;;;4977999;28;20446;-63
2024/03/15 04:34:47;;;;;;;11.07;10.77;;;19.90;66.90;;;;;;4978184;28;20491;-64
2024/03/15 04:37:15;;;;;;;10.47;10.17;;;19.90;66.90;;;;;;4978218;28;20476;-63
2024/03/15 04:39:41;;;;;;;10.93;10.63;;;19.90;66.80;;;;;;4973010;28;20440;-64
2024/03/15 04:42:08;;;;;;;10.53;10.23;;;19.90;66.80;;;;;;4974387;28;20444;-64
2024/03/15 04:44:37;;;;;;;10.83;10.53;;;19.90;66.90;;;;;;4974211;28;20810;-64
2024/03/15 04:47:04;;;;;;;10.60;10.30;;;19.90;66.80;;;;;;4974565;28;20945;-64
2024/03/15 04:49:31;;;;;;;11.00;10.70;;;19.90;66.90;;;;;;4977053;28;20435;-64
2024/03/15 04:51:56;;;;;;;11.47;11.17;;;19.90;66.90;;;;;;4977667;28;20523;-64
2024/03/15 04:54:23;;;;;;;10.27;9.97;;;19.90;66.90;;;;;;4977236;28;20979;-64
2024/03/15 04:56:50;;;;;;;10.50;10.20;;;19.90;66.80;;;;;;4977435;28;20295;-63
2024/03/15 04:59:17;;;;;;;11.10;10.70;;;19.90;66.80;;;;;;4976713;28;20812;-64
2024/03/15 05:01:44;;;;;;;11.10;10.80;;;19.90;66.90;;;;;;4974048;28;20799;-64
2024/03/15 05:04:10;;;;;;;11.37;11.07;;;19.90;66.90;;;;;;4973821;28;20468;-64
2024/03/15 05:06:37;;;;;;;11.60;11.30;;;19.90;66.90;;;;;;4973944;28;20444;-64
2024/03/15 05:09:05;;;;;;;11.23;10.93;;;19.90;66.90;;;;;;4974034;28;20957;-64
2024/03/15 05:11:33;;;;;;;11.50;11.20;;;19.90;66.90;;;;;;4992322;28;20435;-64
2024/03/15 05:14:00;;;;;;;10.90;10.60;;;20.00;67.00;;;;;;4976932;28;20498;-64
2024/03/15 05:16:26;;;;;;;11.10;10.80;;;19.90;66.90;;;;;;4977096;28;20482;-64
2024/03/15 05:18:53;;;;;;;11.23;10.93;;;19.90;67.10;;;;;;4966237;28;20444;-64
2024/03/15 05:21:20;;;;;;;10.87;10.47;;;20.00;67.10;;;;;;4973718;28;20825;-64
2024/03/15 05:23:48;;;;;;;11.73;11.40;;;20.00;67.20;;;;;;4973700;28;20460;-64
2024/03/15 05:26:14;;;;;;;11.13;10.77;;;20.00;67.40;;;;;;4973148;28;20435;-64
2024/03/15 05:28:42;;;;;;;11.87;11.57;;;20.00;67.50;;;;;;4981533;28;20446;-64
2024/03/15 05:31:09;;;;;;;11.60;11.30;;;20.00;67.50;;;;;;4977308;28;20474;-64
2024/03/15 05:33:37;;;;;;;11.33;11.03;;;20.00;67.80;;;;;;4976003;28;20487;-64
2024/03/15 05:36:04;;;;;;;12.27;11.87;;;20.00;67.90;;;;;;4976494;28;20447;-64
2024/03/15 05:38:33;;;;;;;12.00;11.70;;;20.00;68.00;;;;;;4969929;28;20472;-64
2024/03/15 05:41:01;;;;;;;12.00;11.50;;;20.00;68.10;;;;;;4973546;28;20563;-64
2024/03/15 05:43:27;;;;;;;11.63;11.17;;;20.00;68.30;;;;;;4973477;28;20463;-63
2024/03/15 05:45:54;;;;;;;11.70;11.40;;;20.00;68.20;;;;;;4972870;28;20816;-64
2024/03/15 05:48:21;;;;;;;11.90;11.60;;;19.90;68.10;;;;;;4974171;28;20537;-63
2024/03/15 05:50:49;;;;;;;11.23;10.93;;;19.90;68.20;;;;;;4968099;28;21065;-63
2024/03/15 05:53:16;;;;;;;11.17;10.77;;;19.90;68.20;;;;;;4972941;28;20537;-64
2024/03/15 05:55:43;;;;;;;12.20;11.83;;;19.90;68.30;;;;;;4972640;28;20523;-64
2024/03/15 05:58:10;;;;;;;12.00;11.70;;;19.90;68.30;;;;;;4976087;28;20932;-63
2024/03/15 06:00:37;;;;;;;12.17;11.87;;;20.00;68.40;;;;;;4976378;28;20478;-63
2024/03/15 06:03:06;;;;;;;11.30;11.00;;;19.90;68.30;;;;;;4976165;28;20976;-65
2024/03/15 06:05:33;;;;;;;11.73;11.43;;;19.90;68.30;;;;;;4976115;28;20879;-65
2024/03/15 06:08:00;;;;;;;12.90;11.63;;;20.00;68.30;;;;;;4974559;28;20447;-65
2024/03/15 06:10:28;;;;;;;11.97;11.67;;;20.00;68.10;;;;;;4972738;28;20451;-65
2024/03/15 06:12:56;;;;;;;12.10;11.80;;;20.00;67.90;;;;;;4972844;28;20491;-64
2024/03/15 06:15:22;;;;;;;12.00;11.60;;;20.00;67.90;;;;;;4972313;28;20471;-64
2024/03/15 06:17:49;;;;;;;13.10;12.70;;;20.00;68.60;;;;;;4972884;28;20447;-64
2024/03/15 06:20:18;;;;;;;12.50;12.20;;;20.00;67.70;;;;;;4991870;28;20454;-63
2024/03/15 06:22:45;;;;;;;11.77;11.47;;;20.00;67.60;;;;;;4976037;28;20542;-63
2024/03/15 06:25:12;;;;;;;12.13;11.73;;;20.10;67.70;;;;;;4975545;28;20442;-63
2024/03/15 06:27:40;;;;;;;12.50;11.70;;;20.10;67.50;;;;;;4964374;28;20471;-62
2024/03/15 06:30:08;;;;;;;12.53;12.03;;;20.10;67.60;;;;;;4972879;28;20494;-62
2024/03/15 06:32:38;;;;;;;13.17;12.20;;;20.10;67.70;;;;;;4968734;28;20452;-61
2024/03/15 06:35:18;;;;;;;12.30;11.77;;;20.10;67.90;;;;;;4976198;28;20493;-61
2024/03/15 06:37:45;;;;;;;12.77;12.03;;;20.10;67.80;;;;;;4977673;28;20443;-61
2024/03/15 06:40:19;;;;;;;13.10;12.67;;;20.10;67.40;;;;;;4975836;28;20446;-61
2024/03/15 06:43:09;;;;;;;13.10;12.70;;;20.10;67.00;;;;;;4976592;28;20439;-61
2024/03/15 06:48:22;;;;;;;13.70;12.70;;;20.10;66.40;;;;;;4978118;28;20449;-61
2024/03/15 06:50:50;;;;;;;13.47;12.80;;;20.20;66.30;;;;;;4975925;28;20783;-62
2024/03/15 06:53:17;;;;;;;12.40;12.00;;;20.20;66.00;;;;;;4975486;28;20470;-60
2024/03/15 06:55:45;;;;;;;12.80;12.40;;;20.20;65.80;;;;;;4975337;28;20936;-61
2024/03/15 06:58:12;;;;;;;12.27;11.67;;;20.20;65.60;;;;;;4975491;28;20447;-61
2024/03/15 07:00:40;;;;;;;12.13;11.73;;;20.20;65.40;;;;;;4975546;28;20438;-61
2024/03/15 07:03:07;;;;;;;12.40;12.10;;;20.20;65.30;;;;;;4975430;28;20506;-62
2024/03/15 07:05:34;;;;;;;12.10;11.70;;;20.20;65.20;;;;;;4974993;28;20478;-62
2024/03/15 07:08:00;;;;;;;12.33;11.93;;;20.20;65.00;;;;;;4975098;28;20447;-60
2024/03/15 07:10:27;;;;;;;13.30;12.60;;;20.20;64.90;;;;;;4975013;28;20938;-59
2024/03/15 07:12:54;;;;;;;12.53;12.10;;;20.20;64.70;;;;;;4974902;28;20475;-61
2024/03/15 07:15:21;;;;;;;13.27;12.27;;;20.20;64.60;;;;;;4974603;28;20486;-60
2024/03/15 07:17:48;;;;;;;11.70;11.40;;;20.20;64.50;;;;;;4975002;28;20815;-61
2024/03/15 07:20:15;;;;;;;12.03;11.63;;;20.20;64.30;;;;;;4974924;28;20952;-60
2024/03/15 07:22:42;;;;;;;11.90;11.60;;;20.20;64.30;;;;;;4974958;28;20831;-61
2024/03/15 07:25:10;;;;;;;12.50;12.10;;;20.20;64.20;;;;;;4974613;28;20435;-62
2024/03/15 07:27:37;;;;;;;12.20;11.90;;;20.20;64.10;;;;;;4975185;28;20799;-60
2024/03/15 07:30:05;;;;;;;11.90;11.60;;;20.20;64.00;;;;;;4974862;28;20443;-62
2024/03/15 07:32:35;;;;;;;11.63;11.33;;;20.20;63.90;;;;;;4974860;28;20785;-59
2024/03/15 07:35:04;;;;;;;12.00;11.60;;;20.20;63.90;;;;;;4974929;28;20486;-62
2024/03/15 07:37:31;;;;;;;12.20;11.80;;;20.20;63.70;;;;;;4974899;28;20447;-61
2024/03/15 07:39:58;;;;;;;11.77;11.37;;;20.20;63.70;;;;;;4974854;28;20630;-58
2024/03/15 07:42:25;;;;;;;11.47;11.17;;;20.20;63.70;;;;;;4974758;28;20478;-63
2024/03/15 07:44:53;;;;;;;11.60;11.30;;;20.20;63.50;;;;;;4974454;28;20445;-60
2024/03/15 07:47:21;;;;;;;12.30;12.00;;;20.20;63.50;;;;;;4975039;28;21014;-61
2024/03/15 07:49:49;;;;;;;12.87;12.10;;;20.20;63.40;;;;;;4974694;28;20442;-60
2024/03/15 07:52:16;;;;;;;12.30;11.90;;;20.20;63.30;;;;;;4974786;28;20446;-61
2024/03/15 07:54:43;;;;;;;12.83;12.30;;;20.20;63.30;;;;;;4974231;28;20489;-61
2024/03/15 07:57:10;;;;;;;12.60;12.20;;;20.20;64.00;;;;;;4978115;28;20443;-60
2024/03/15 07:59:37;;;;;;;12.67;12.37;;;20.20;63.20;;;;;;4978375;28;20538;-60
2024/03/15 08:02:04;;;;;;;12.63;12.23;;;20.20;63.10;;;;;;4978407;28;20835;-61
2024/03/15 08:04:31;;;;;;;13.50;13.10;;;20.20;63.00;;;;;;4977985;28;20458;-61
2024/03/15 08:06:58;;;;;;;13.13;12.60;;;20.20;63.00;;;;;;4978296;28;20448;-61
2024/03/15 08:09:25;;;;;;;12.23;11.93;;;20.20;62.90;;;;;;4978227;28;20816;-62
2024/03/15 08:11:52;;;;;;;12.67;12.33;;;20.20;62.90;;;;;;4978389;28;20443;-60
2024/03/15 08:14:19;;;;;;;13.23;12.73;;;20.20;62.90;;;;;;4977819;28;20581;-61
2024/03/15 08:16:48;;;;;;;13.83;13.23;;;20.20;62.80;;;;;;4978473;28;20439;-61
2024/03/15 08:19:15;;;;;;;12.83;12.50;;;20.20;62.80;;;;;;4978333;28;20447;-61
2024/03/15 08:21:42;;;;;;;12.80;12.50;;;20.20;62.70;;;;;;4977940;28;20449;-60
2024/03/15 08:24:10;;;;;;;12.97;12.60;;;20.20;62.70;;;;;;4977580;28;20809;-61
2024/03/15 08:26:39;;;;;;;13.00;12.63;;;20.20;62.70;;;;;;4978141;28;20438;-60
2024/03/15 08:29:05;;;;;;;13.70;13.30;;;20.20;62.60;;;;;;4978061;28;21015;-61
2024/03/15 08:31:32;;;;;;;14.30;13.90;;;20.20;62.60;;;;;;4977903;28;20435;-62
2024/03/15 08:34:02;;;;;;;13.97;13.40;;;20.20;62.60;;;;;;4977371;28;20490;-61
2024/03/15 08:36:29;;;;;;;13.30;12.80;;;20.20;63.20;;;;;;4978210;28;20537;-61
2024/03/15 08:38:56;;;;;;;13.60;13.20;;;20.20;62.40;;;;;;4977859;28;20940;-62
2024/03/15 08:41:23;;;;;;;13.10;12.70;;;20.20;62.30;;;;;;4977744;28;20439;-62
2024/03/15 08:43:51;;;;;;;12.83;12.43;;;20.20;62.30;;;;;;4977445;28;20462;-62
2024/03/15 08:46:18;;;;;;;12.93;12.63;;;20.20;62.30;;;;;;4977395;28;20542;-60
2024/03/15 08:48:44;;;;;;;13.00;12.60;;;20.20;62.20;;;;;;4977618;28;20449;-60
2024/03/15 08:51:13;;;;;;;12.70;12.40;;;20.20;62.10;;;;;;4977485;28;20461;-59
2024/03/15 08:53:41;;;;;;;13.30;12.90;;;20.20;62.10;;;;;;4977564;28;20502;-62
2024/03/15 08:56:08;;;;;;;12.43;12.13;;;20.20;62.10;;;;;;4977068;28;20568;-60
2024/03/15 08:58:35;;;;;;;13.03;12.63;;;20.20;62.00;;;;;;4977390;28;20446;-59
2024/03/15 09:01:04;;;;;;;12.70;12.40;;;20.20;62.00;;;;;;4977403;28;20943;-60
2024/03/15 09:03:33;;;;;;;12.37;12.03;;;20.20;61.90;;;;;;4977652;28;20478;-61
2024/03/15 09:06:00;;;;;;;12.70;12.30;;;20.20;61.90;;;;;;4977269;28;20459;-61
2024/03/15 09:08:27;;;;;;;13.17;12.77;;;20.20;61.90;;;;;;4975991;28;20439;-61
2024/03/15 09:10:53;;;;;;;12.40;12.00;;;20.20;61.80;;;;;;4977155;28;20442;-61
2024/03/15 09:13:20;;;;;;;12.90;12.53;;;20.20;61.80;;;;;;4977039;28;20494;-60
2024/03/15 09:15:46;;;;;;;12.50;12.10;;;20.20;61.80;;;;;;4976777;28;20511;-61
2024/03/15 09:18:13;;;;;;;13.13;12.83;;;20.20;61.70;;;;;;4977234;28;20447;-61
2024/03/15 09:20:42;;;;;;;12.57;12.27;;;20.20;61.70;;;;;;4977079;28;20458;-61
2024/03/15 09:23:11;;;;;;;12.60;12.30;;;20.20;61.60;;;;;;4977578;28;20467;-60
2024/03/15 09:25:38;;;;;;;12.30;12.00;;;20.20;61.60;;;;;;4977059;28;20443;-60
2024/03/15 09:28:07;;;;;;;13.50;13.00;;;20.20;61.60;;;;;;4976898;28;20833;-61
2024/03/15 09:30:36;;;;;;;12.63;12.33;;;20.20;61.60;;;;;;4977118;28;20459;-62
2024/03/15 09:33:04;;;;;;;12.40;12.10;;;20.20;61.60;;;;;;4977049;28;20820;-61
2024/03/15 09:35:32;;;;;;;11.87;11.57;;;20.20;61.50;;;;;;4976715;28;20486;-61
2024/03/15 09:37:59;;;;;;;12.37;12.07;;;20.20;61.50;;;;;;4976987;28;20443;-62
2024/03/15 09:40:28;;;;;;;13.83;13.40;;;20.20;61.50;;;;;;4976843;28;20447;-61
2024/03/15 09:42:55;;;;;;;12.67;12.37;;;20.20;61.50;;;;;;4977005;28;20474;-62
2024/03/15 09:45:22;;;;;;;13.13;12.80;;;20.20;61.50;;;;;;4976565;28;20928;-62
2024/03/15 09:47:49;;;;;;;12.10;11.80;;;20.20;61.50;;;;;;4976928;28;20439;-60
2024/03/15 09:50:17;;;;;;;12.67;12.37;;;20.20;61.50;;;;;;4976625;28;20482;-61
2024/03/15 09:52:43;;;;;;;12.80;12.50;;;20.20;61.50;;;;;;4976449;28;20475;-61
2024/03/15 09:55:13;;;;;;;13.87;13.47;;;20.20;61.50;;;;;;4976094;28;20494;-62
2024/03/15 09:57:40;;;;;;;12.40;12.07;;;20.20;61.40;;;;;;4977045;28;20478;-61
2024/03/15 10:00:11;;;;;;;12.70;12.40;;;20.20;61.40;;;;;;4976387;28;20447;-61
2024/03/15 10:02:37;;;;;;;12.13;11.80;;;20.20;61.30;;;;;;4977075;28;20804;-61
2024/03/15 10:05:07;;;;;;;12.13;11.83;;;20.20;61.30;;;;;;4976036;28;20447;-60
2024/03/15 10:07:34;;;;;;;11.80;11.50;;;20.20;61.30;;;;;;4976808;28;20439;-59
2024/03/15 10:10:04;;;;;;;12.37;12.07;;;20.20;61.40;;;;;;4976213;28;20447;-61
2024/03/15 10:12:31;;;;;;;12.50;12.20;;;20.20;61.40;;;;;;4976277;28;20474;-61
2024/03/15 10:14:59;;;;;;;12.60;12.20;;;20.20;61.30;;;;;;4975766;28;20494;-61
2024/03/15 10:17:25;;;;;;;13.00;12.60;;;20.20;61.30;;;;;;4976304;28;20446;-59
2024/03/15 10:19:52;;;;;;;13.40;13.00;;;20.20;61.30;;;;;;4975684;28;20819;-62
2024/03/15 10:22:19;;;;;;;12.53;12.23;;;20.20;61.40;;;;;;4976373;28;20439;-61
2024/03/15 10:24:46;;;;;;;12.50;12.20;;;20.20;61.30;;;;;;4975526;28;20495;-60
2024/03/15 10:27:13;;;;;;;12.30;12.00;;;20.20;61.30;;;;;;4976194;28;20813;-61
2024/03/15 10:29:40;;;;;;;13.50;13.03;;;20.20;61.30;;;;;;4975906;28;20485;-61
2024/03/15 10:32:08;;;;;;;13.60;13.20;;;20.20;61.20;;;;;;4975924;28;20439;-61
2024/03/15 10:34:35;;;;;;;12.43;12.13;;;20.30;61.30;;;;;;4975376;28;20459;-61
2024/03/15 10:37:02;;;;;;;12.83;12.47;;;20.30;61.20;;;;;;4975792;28;20482;-61
2024/03/15 10:39:28;;;;;;;12.43;12.13;;;20.30;61.20;;;;;;4975742;28;20447;-61
2024/03/15 10:41:56;;;;;;;12.30;11.90;;;20.30;61.20;;;;;;4975922;28;20439;-61
2024/03/15 10:44:22;;;;;;;11.77;11.47;;;20.30;61.10;;;;;;4975322;28;20837;-61
2024/03/15 10:46:49;;;;;;;12.30;11.90;;;20.30;61.10;;;;;;4975776;28;20434;-61
2024/03/15 10:49:17;;;;;;;12.60;12.20;;;20.30;61.10;;;;;;4975596;28;20470;-61
2024/03/15 10:51:44;;;;;;;12.20;11.90;;;20.30;61.10;;;;;;4975773;28;20820;-61
2024/03/15 10:54:11;;;;;;;11.67;11.37;;;20.30;61.00;;;;;;4975163;28;20979;-61
2024/03/15 10:56:38;;;;;;;12.20;11.90;;;20.30;61.80;;;;;;4975582;28;20489;-60
2024/03/15 10:59:04;;;;;;;13.30;12.90;;;20.30;61.00;;;;;;4975711;28;20516;-61
2024/03/15 11:01:33;;;;;;;12.00;11.70;;;20.30;61.00;;;;;;4975903;28;20450;-61
2024/03/15 11:04:01;;;;;;;12.20;11.90;;;20.30;61.00;;;;;;4975190;28;20851;-62
2024/03/15 11:06:39;;;;;;;13.13;12.83;;;20.30;61.70;;;;;;4975727;28;20447;-60
2024/03/15 11:09:21;;;;;;;12.40;12.10;;;20.30;60.90;;;;;;4975667;28;20790;-62
2024/03/15 11:12:01;;;;;;;11.60;11.30;;;20.30;60.90;;;;;;4976699;28;20449;-59
2024/03/15 11:14:32;;;;;;;12.00;11.70;;;20.40;61.00;;;;;;4974933;28;20475;-59
2024/03/15 11:17:02;;;;;;;12.50;12.20;;;20.30;60.80;;;;;;4975687;28;20437;-62
2024/03/15 11:19:29;;;;;;;13.20;12.80;;;20.40;60.90;;;;;;4975531;28;20439;-61
2024/03/15 11:22:04;;;;;;;13.03;12.60;;;20.40;60.90;;;;;;4961968;28;20499;-60
2024/03/15 11:24:40;;;;;;;13.60;9.63;;;20.30;60.80;;;;;;4971730;28;20958;-66
2024/03/15 11:27:11;;;;;;;6.70;6.60;;;20.40;61.80;;;;;;4973608;28;20479;-64
2024/03/15 11:29:39;;;;;;;6.80;6.70;;;20.40;63.40;;;;;;4972202;28;20451;-65
2024/03/15 11:32:10;;;;;;;10.23;10.03;;;20.50;63.80;;;;;;4976517;28;20458;-64
2024/03/15 11:34:37;;;;;;;7.07;6.97;;;20.50;63.60;;;;;;4975443;28;21144;-64
2024/03/15 11:37:04;;;;;;;6.87;6.77;;;20.60;63.90;;;;;;4975847;28;20435;-64
2024/03/15 11:39:31;;;;;;;7.50;7.30;;;20.60;63.90;;;;;;4976358;28;20969;-62
2024/03/15 11:42:02;;;;;;;9.10;8.83;;;20.60;63.80;;;;;;4975727;28;20432;-60
2024/03/15 11:44:30;;;;;;;6.30;6.20;;;20.50;63.70;;;;;;4975311;28;20455;-62
2024/03/15 11:46:56;;;;;;;6.00;5.90;;;20.50;63.80;;;;;;4987430;28;20519;-62
2024/03/15 11:49:23;;;;;;;5.93;5.83;;;20.50;64.00;;;;;;4979325;28;20441;-62
2024/03/15 11:51:56;;;;;;;7.20;7.10;;;20.50;64.10;;;;;;4976409;28;20432;-60
2024/03/15 11:54:23;;;;;;;9.50;9.20;;;20.50;64.30;;;;;;4978419;28;20227;-60
2024/03/15 11:56:57;;;;;;;8.37;8.17;;;20.60;64.10;;;;;;4978328;28;20493;-59
2024/03/15 11:59:24;;;;;;;8.80;8.60;;;20.70;63.50;;;;;;4979700;28;20443;-60
2024/03/15 12:01:51;;;;;;;9.20;9.00;;;20.70;63.10;;;;;;4978767;28;20694;-60
2024/03/15 12:04:18;;;;;;;9.00;8.80;;;20.70;62.90;;;;;;4978153;28;20992;-60
2024/03/15 12:06:45;;;;;;;9.87;9.67;;;20.70;62.80;;;;;;4978795;28;20439;-59
2024/03/15 12:09:12;;;;;;;9.20;9.00;;;20.70;62.70;;;;;;4978901;28;20799;-59
2024/03/15 12:11:39;;;;;;;9.27;9.07;;;20.70;62.70;;;;;;4978984;28;20855;-59
2024/03/15 12:14:07;;;;;;;8.53;8.33;;;20.60;62.60;;;;;;5006772;23;20500;-60
2024/03/15 12:16:34;;;;;;;8.40;8.20;;;20.60;62.50;;;;;;4936131;29;20858;-61
2024/03/15 12:19:00;;;;;;;9.03;8.73;;;20.60;62.50;;;;;;4951981;29;20441;-62
2024/03/15 12:21:28;;;;;;;9.80;9.50;;;20.60;62.40;;;;;;4928503;29;20445;-59
2024/03/15 12:23:55;;;;;;;9.13;8.93;;;20.60;62.30;;;;;;4943832;29;20469;-61
2024/03/15 12:26:22;;;;;;;9.40;9.20;;;20.60;62.40;;;;;;4935173;29;20441;-62
2024/03/15 12:28:52;;;;;;;9.10;8.90;;;20.60;62.30;;;;;;4934204;29;20448;-59
2024/03/15 12:31:19;;;;;;;8.87;8.67;;;20.60;62.20;;;;;;4952865;28;20485;-60
2024/03/15 12:33:46;;;;;;;8.93;8.70;;;20.60;62.20;;;;;;4944086;29;20496;-62
2024/03/15 12:36:13;;;;;;;9.37;9.00;;;20.60;62.20;;;;;;4944642;29;20481;-60
2024/03/15 12:38:40;;;;;;;8.50;8.30;;;20.60;62.30;;;;;;4955063;28;20447;-61